Terminal Aerodrome Forecast
Issued by NWS

Home | Current Version | Previous Version | Graphics & Text | Print | Product List | Glossary On
Versions: 1 2 3 4 5 6 7 8 9 10 11 12 13 14
000
FTUS45 KGGW 261734
TAFOLF
TAF
KOLF 261734Z 2618/2718 30017G25KT P6SM SCT060 BKN090
     FM262000 30015G23KT P6SM BKN090
     FM270000 29011KT P6SM SCT090=

USA.gov is the U.S. government's official web portal to all federal, state and local government web resources and services.